sensor_id;sensor_type;location;lat;lon;timestamp;P1;durP1;ratioP1;P2;durP2;ratioP2
34136;SDS011;20414;50.860;4.382;2022-10-23T00:02:20;1.60;;;1.33;;
34136;SDS011;20414;50.860;4.382;2022-10-23T00:04:49;1.88;;;1.30;;
34136;SDS011;20414;50.860;4.382;2022-10-23T00:07:16;1.58;;;1.30;;
34136;SDS011;20414;50.860;4.382;2022-10-23T00:09:42;1.65;;;1.40;;
34136;SDS011;20414;50.860;4.382;2022-10-23T00:12:07;1.40;;;1.25;;
34136;SDS011;20414;50.860;4.382;2022-10-23T00:14:34;1.20;;;1.00;;
34136;SDS011;20414;50.860;4.382;2022-10-23T00:17:00;1.20;;;1.10;;
34136;SDS011;20414;50.860;4.382;2022-10-23T00:19:25;1.60;;;1.35;;
34136;SDS011;20414;50.860;4.382;2022-10-23T00:21:51;1.77;;;1.10;;
34136;SDS011;20414;50.860;4.382;2022-10-23T00:24:17;1.40;;;1.30;;
34136;SDS011;20414;50.860;4.382;2022-10-23T00:26:42;1.40;;;1.20;;
34136;SDS011;20414;50.860;4.382;2022-10-23T00:29:09;1.63;;;1.20;;
34136;SDS011;20414;50.860;4.382;2022-10-23T00:31:35;1.25;;;1.15;;
34136;SDS011;20414;50.860;4.382;2022-10-23T00:34:01;1.40;;;1.30;;
34136;SDS011;20414;50.860;4.382;2022-10-23T00:36:28;1.67;;;1.58;;
34136;SDS011;20414;50.860;4.382;2022-10-23T00:38:54;1.23;;;1.05;;
34136;SDS011;20414;50.860;4.382;2022-10-23T00:41:21;1.40;;;1.25;;
34136;SDS011;20414;50.860;4.382;2022-10-23T00:43:57;1.42;;;1.33;;
34136;SDS011;20414;50.860;4.382;2022-10-23T00:46:23;1.30;;;1.20;;
34136;SDS011;20414;50.860;4.382;2022-10-23T00:48:49;1.15;;;1.05;;
34136;SDS011;20414;50.860;4.382;2022-10-23T00:51:15;1.42;;;1.25;;
34136;SDS011;20414;50.860;4.382;2022-10-23T00:53:41;1.60;;;1.40;;
34136;SDS011;20414;50.860;4.382;2022-10-23T00:56:08;1.70;;;1.50;;
34136;SDS011;20414;50.860;4.382;2022-10-23T00:58:34;1.33;;;1.20;;
34136;SDS011;20414;50.860;4.382;2022-10-23T01:01:00;1.20;;;1.10;;
34136;SDS011;20414;50.860;4.382;2022-10-23T01:03:26;1.33;;;1.23;;
34136;SDS011;20414;50.860;4.382;2022-10-23T01:11:37;1.50;;;1.30;;
34136;SDS011;20414;50.860;4.382;2022-10-23T01:14:05;1.58;;;1.33;;
34136;SDS011;20414;50.860;4.382;2022-10-23T01:19:50;1.35;;;1.10;;
34136;SDS011;20414;50.860;4.382;2022-10-23T01:28:10;1.27;;;1.17;;
34136;SDS011;20414;50.860;4.382;2022-10-23T01:30:42;1.40;;;1.20;;
34136;SDS011;20414;50.860;4.382;2022-10-23T01:33:09;1.40;;;1.05;;
34136;SDS011;20414;50.860;4.382;2022-10-23T01:43:22;1.25;;;1.15;;
34136;SDS011;20414;50.860;4.382;2022-10-23T01:45:54;1.55;;;1.23;;
34136;SDS011;20414;50.860;4.382;2022-10-23T01:48:25;1.58;;;1.17;;
34136;SDS011;20414;50.860;4.382;2022-10-23T01:50:53;1.30;;;1.20;;
34136;SDS011;20414;50.860;4.382;2022-10-23T01:53:21;2.00;;;1.20;;
34136;SDS011;20414;50.860;4.382;2022-10-23T01:55:52;1.33;;;1.10;;
34136;SDS011;20414;50.860;4.382;2022-10-23T01:58:19;1.08;;;0.98;;
34136;SDS011;20414;50.860;4.382;2022-10-23T02:00:46;1.10;;;1.00;;
34136;SDS011;20414;50.860;4.382;2022-10-23T02:03:14;2.85;;;1.20;;
34136;SDS011;20414;50.860;4.382;2022-10-23T02:05:41;1.33;;;1.10;;
34136;SDS011;20414;50.860;4.382;2022-10-23T02:08:08;1.27;;;1.10;;
34136;SDS011;20414;50.860;4.382;2022-10-23T02:10:46;1.38;;;1.20;;
34136;SDS011;20414;50.860;4.382;2022-10-23T02:16:05;1.10;;;1.00;;
34136;SDS011;20414;50.860;4.382;2022-10-23T02:21:20;1.20;;;1.10;;
34136;SDS011;20414;50.860;4.382;2022-10-23T02:26:24;1.33;;;1.08;;
34136;SDS011;20414;50.860;4.382;2022-10-23T02:28:56;1.10;;;1.00;;
34136;SDS011;20414;50.860;4.382;2022-10-23T02:31:25;1.20;;;1.10;;
34136;SDS011;20414;50.860;4.382;2022-10-23T02:33:51;1.48;;;1.27;;
34136;SDS011;20414;50.860;4.382;2022-10-23T02:36:17;1.42;;;1.00;;
34136;SDS011;20414;50.860;4.382;2022-10-23T02:38:44;1.10;;;1.00;;
34136;SDS011;20414;50.860;4.382;2022-10-23T02:52:41;0.88;;;0.80;;
34136;SDS011;20414;50.860;4.382;2022-10-23T02:58:28;1.10;;;1.00;;
34136;SDS011;20414;50.860;4.382;2022-10-23T03:03:34;1.25;;;1.00;;
34136;SDS011;20414;50.860;4.382;2022-10-23T03:06:04;1.20;;;1.10;;
34136;SDS011;20414;50.860;4.382;2022-10-23T03:08:39;1.10;;;1.00;;
34136;SDS011;20414;50.860;4.382;2022-10-23T03:11:09;1.17;;;1.08;;
34136;SDS011;20414;50.860;4.382;2022-10-23T03:13:35;1.10;;;1.00;;
34136;SDS011;20414;50.860;4.382;2022-10-23T03:16:00;0.98;;;0.90;;
34136;SDS011;20414;50.860;4.382;2022-10-23T03:18:26;0.93;;;0.85;;
34136;SDS011;20414;50.860;4.382;2022-10-23T03:20:52;1.23;;;0.88;;
34136;SDS011;20414;50.860;4.382;2022-10-23T03:23:18;1.40;;;0.93;;
34136;SDS011;20414;50.860;4.382;2022-10-23T03:25:43;1.25;;;1.00;;
34136;SDS011;20414;50.860;4.382;2022-10-23T03:28:09;1.10;;;0.90;;
34136;SDS011;20414;50.860;4.382;2022-10-23T03:30:35;1.42;;;1.15;;
34136;SDS011;20414;50.860;4.382;2022-10-23T03:33:00;1.00;;;0.80;;
34136;SDS011;20414;50.860;4.382;2022-10-23T03:35:26;1.20;;;0.95;;
34136;SDS011;20414;50.860;4.382;2022-10-23T03:37:51;0.98;;;0.88;;
34136;SDS011;20414;50.860;4.382;2022-10-23T03:40:17;1.75;;;1.17;;
34136;SDS011;20414;50.860;4.382;2022-10-23T03:42:43;1.00;;;0.90;;
34136;SDS011;20414;50.860;4.382;2022-10-23T03:45:08;1.23;;;1.10;;
34136;SDS011;20414;50.860;4.382;2022-10-23T03:47:34;1.20;;;1.08;;
34136;SDS011;20414;50.860;4.382;2022-10-23T03:50:05;1.08;;;0.90;;
34136;SDS011;20414;50.860;4.382;2022-10-23T03:52:32;1.00;;;0.90;;
34136;SDS011;20414;50.860;4.382;2022-10-23T03:54:57;1.00;;;0.90;;
34136;SDS011;20414;50.860;4.382;2022-10-23T03:57:23;1.27;;;0.90;;
34136;SDS011;20414;50.860;4.382;2022-10-23T03:59:48;0.80;;;0.73;;
34136;SDS011;20414;50.860;4.382;2022-10-23T04:02:14;0.95;;;0.80;;
34136;SDS011;20414;50.860;4.382;2022-10-23T04:04:40;0.90;;;0.80;;
34136;SDS011;20414;50.860;4.382;2022-10-23T04:07:05;1.13;;;0.85;;
34136;SDS011;20414;50.860;4.382;2022-10-23T04:09:31;1.00;;;0.80;;
34136;SDS011;20414;50.860;4.382;2022-10-23T04:11:56;1.15;;;1.05;;
34136;SDS011;20414;50.860;4.382;2022-10-23T04:14:22;0.93;;;0.80;;
34136;SDS011;20414;50.860;4.382;2022-10-23T04:16:48;1.00;;;0.90;;
34136;SDS011;20414;50.860;4.382;2022-10-23T04:19:13;0.70;;;0.70;;
34136;SDS011;20414;50.860;4.382;2022-10-23T04:21:41;1.42;;;1.05;;
34136;SDS011;20414;50.860;4.382;2022-10-23T04:24:07;1.77;;;1.08;;
34136;SDS011;20414;50.860;4.382;2022-10-23T04:26:32;0.80;;;0.80;;
34136;SDS011;20414;50.860;4.382;2022-10-23T04:28:58;1.88;;;1.10;;
34136;SDS011;20414;50.860;4.382;2022-10-23T04:31:24;0.98;;;0.80;;
34136;SDS011;20414;50.860;4.382;2022-10-23T04:33:50;1.00;;;0.70;;
34136;SDS011;20414;50.860;4.382;2022-10-23T04:36:15;0.98;;;0.88;;
34136;SDS011;20414;50.860;4.382;2022-10-23T04:38:41;0.93;;;0.90;;
34136;SDS011;20414;50.860;4.382;2022-10-23T04:41:07;0.90;;;0.80;;
34136;SDS011;20414;50.860;4.382;2022-10-23T04:43:32;0.93;;;0.88;;
34136;SDS011;20414;50.860;4.382;2022-10-23T04:45:58;1.20;;;1.00;;
34136;SDS011;20414;50.860;4.382;2022-10-23T04:48:25;0.85;;;0.80;;
34136;SDS011;20414;50.860;4.382;2022-10-23T04:50:54;0.95;;;0.80;;
34136;SDS011;20414;50.860;4.382;2022-10-23T04:53:22;0.98;;;0.80;;
34136;SDS011;20414;50.860;4.382;2022-10-23T04:55:49;0.80;;;0.70;;
34136;SDS011;20414;50.860;4.382;2022-10-23T04:58:15;0.82;;;0.73;;
34136;SDS011;20414;50.860;4.382;2022-10-23T05:00:41;1.00;;;0.90;;
34136;SDS011;20414;50.860;4.382;2022-10-23T05:03:07;1.20;;;0.90;;
34136;SDS011;20414;50.860;4.382;2022-10-23T05:05:32;1.08;;;0.82;;
34136;SDS011;20414;50.860;4.382;2022-10-23T05:07:58;0.90;;;0.80;;
34136;SDS011;20414;50.860;4.382;2022-10-23T05:10:23;0.95;;;0.85;;
34136;SDS011;20414;50.860;4.382;2022-10-23T05:12:49;0.70;;;0.70;;
34136;SDS011;20414;50.860;4.382;2022-10-23T05:15:15;0.65;;;0.65;;
34136;SDS011;20414;50.860;4.382;2022-10-23T05:17:40;1.00;;;0.80;;
34136;SDS011;20414;50.860;4.382;2022-10-23T05:20:12;1.00;;;0.90;;
34136;SDS011;20414;50.860;4.382;2022-10-23T05:22:42;0.77;;;0.70;;
34136;SDS011;20414;50.860;4.382;2022-10-23T05:25:09;0.70;;;0.70;;
34136;SDS011;20414;50.860;4.382;2022-10-23T05:27:36;0.88;;;0.80;;
34136;SDS011;20414;50.860;4.382;2022-10-23T05:30:02;0.98;;;0.80;;
34136;SDS011;20414;50.860;4.382;2022-10-23T05:32:28;0.55;;;0.55;;
34136;SDS011;20414;50.860;4.382;2022-10-23T05:34:56;0.95;;;0.70;;
34136;SDS011;20414;50.860;4.382;2022-10-23T05:37:23;0.70;;;0.70;;
34136;SDS011;20414;50.860;4.382;2022-10-23T05:39:49;0.70;;;0.70;;
34136;SDS011;20414;50.860;4.382;2022-10-23T05:42:15;0.70;;;0.70;;
34136;SDS011;20414;50.860;4.382;2022-10-23T05:44:41;0.70;;;0.70;;
34136;SDS011;20414;50.860;4.382;2022-10-23T05:47:07;0.80;;;0.80;;
34136;SDS011;20414;50.860;4.382;2022-10-23T05:49:32;0.60;;;0.60;;
34136;SDS011;20414;50.860;4.382;2022-10-23T05:51:58;0.85;;;0.70;;
34136;SDS011;20414;50.860;4.382;2022-10-23T05:54:24;0.90;;;0.75;;
34136;SDS011;20414;50.860;4.382;2022-10-23T05:56:49;1.00;;;0.75;;
34136;SDS011;20414;50.860;4.382;2022-10-23T05:59:15;0.70;;;0.70;;
34136;SDS011;20414;50.860;4.382;2022-10-23T06:01:41;0.90;;;0.70;;
34136;SDS011;20414;50.860;4.382;2022-10-23T06:04:07;0.85;;;0.60;;
34136;SDS011;20414;50.860;4.382;2022-10-23T06:06:33;0.82;;;0.73;;
34136;SDS011;20414;50.860;4.382;2022-10-23T06:08:58;0.85;;;0.70;;
34136;SDS011;20414;50.860;4.382;2022-10-23T06:11:24;0.85;;;0.77;;
34136;SDS011;20414;50.860;4.382;2022-10-23T06:13:49;0.90;;;0.70;;
34136;SDS011;20414;50.860;4.382;2022-10-23T06:16:19;1.30;;;0.75;;
34136;SDS011;20414;50.860;4.382;2022-10-23T06:18:46;0.60;;;0.60;;
34136;SDS011;20414;50.860;4.382;2022-10-23T06:21:12;0.77;;;0.70;;
34136;SDS011;20414;50.860;4.382;2022-10-23T06:23:39;0.85;;;0.65;;
34136;SDS011;20414;50.860;4.382;2022-10-23T06:26:05;1.42;;;0.70;;
34136;SDS011;20414;50.860;4.382;2022-10-23T06:28:33;1.00;;;0.60;;
34136;SDS011;20414;50.860;4.382;2022-10-23T06:30:58;0.80;;;0.80;;
34136;SDS011;20414;50.860;4.382;2022-10-23T06:33:27;0.50;;;0.50;;
34136;SDS011;20414;50.860;4.382;2022-10-23T06:35:54;0.90;;;0.80;;
34136;SDS011;20414;50.860;4.382;2022-10-23T06:38:20;1.25;;;0.70;;
34136;SDS011;20414;50.860;4.382;2022-10-23T06:40:50;0.85;;;0.70;;
34136;SDS011;20414;50.860;4.382;2022-10-23T06:43:20;0.70;;;0.70;;
34136;SDS011;20414;50.860;4.382;2022-10-23T06:45:46;1.42;;;0.70;;
34136;SDS011;20414;50.860;4.382;2022-10-23T06:48:11;1.08;;;0.88;;
34136;SDS011;20414;50.860;4.382;2022-10-23T06:50:37;0.80;;;0.60;;
34136;SDS011;20414;50.860;4.382;2022-10-23T06:53:04;0.98;;;0.55;;
34136;SDS011;20414;50.860;4.382;2022-10-23T06:55:30;0.80;;;0.63;;
34136;SDS011;20414;50.860;4.382;2022-10-23T06:57:57;0.60;;;0.57;;
34136;SDS011;20414;50.860;4.382;2022-10-23T07:00:23;0.70;;;0.70;;
34136;SDS011;20414;50.860;4.382;2022-10-23T07:02:49;1.02;;;0.70;;
34136;SDS011;20414;50.860;4.382;2022-10-23T07:05:15;1.05;;;0.82;;
34136;SDS011;20414;50.860;4.382;2022-10-23T07:07:42;0.80;;;0.80;;
34136;SDS011;20414;50.860;4.382;2022-10-23T07:10:07;0.70;;;0.70;;
34136;SDS011;20414;50.860;4.382;2022-10-23T07:12:33;1.40;;;0.80;;
34136;SDS011;20414;50.860;4.382;2022-10-23T07:14:59;0.77;;;0.60;;
34136;SDS011;20414;50.860;4.382;2022-10-23T07:17:24;0.77;;;0.60;;
34136;SDS011;20414;50.860;4.382;2022-10-23T07:19:50;1.02;;;0.60;;
34136;SDS011;20414;50.860;4.382;2022-10-23T07:22:15;0.60;;;0.60;;
34136;SDS011;20414;50.860;4.382;2022-10-23T07:24:41;0.95;;;0.70;;
34136;SDS011;20414;50.860;4.382;2022-10-23T07:27:07;0.82;;;0.52;;
34136;SDS011;20414;50.860;4.382;2022-10-23T07:29:33;0.82;;;0.60;;
34136;SDS011;20414;50.860;4.382;2022-10-23T07:31:58;0.60;;;0.60;;
34136;SDS011;20414;50.860;4.382;2022-10-23T07:34:25;1.00;;;0.70;;
34136;SDS011;20414;50.860;4.382;2022-10-23T07:36:51;0.60;;;0.57;;
34136;SDS011;20414;50.860;4.382;2022-10-23T07:39:18;1.23;;;0.60;;
34136;SDS011;20414;50.860;4.382;2022-10-23T07:41:46;0.90;;;0.63;;
34136;SDS011;20414;50.860;4.382;2022-10-23T07:44:12;0.40;;;0.40;;
34136;SDS011;20414;50.860;4.382;2022-10-23T07:46:38;0.98;;;0.60;;
34136;SDS011;20414;50.860;4.382;2022-10-23T07:49:04;0.80;;;0.60;;
34136;SDS011;20414;50.860;4.382;2022-10-23T07:51:29;0.73;;;0.52;;
34136;SDS011;20414;50.860;4.382;2022-10-23T07:53:55;1.17;;;0.93;;
34136;SDS011;20414;50.860;4.382;2022-10-23T07:56:22;0.70;;;0.60;;
34136;SDS011;20414;50.860;4.382;2022-10-23T07:58:50;0.50;;;0.50;;
34136;SDS011;20414;50.860;4.382;2022-10-23T08:01:20;0.87;;;0.60;;
34136;SDS011;20414;50.860;4.382;2022-10-23T08:03:53;0.93;;;0.75;;
34136;SDS011;20414;50.860;4.382;2022-10-23T08:06:18;0.68;;;0.68;;
34136;SDS011;20414;50.860;4.382;2022-10-23T08:08:44;1.10;;;0.70;;
34136;SDS011;20414;50.860;4.382;2022-10-23T08:11:11;0.70;;;0.60;;
34136;SDS011;20414;50.860;4.382;2022-10-23T08:13:39;0.93;;;0.80;;
34136;SDS011;20414;50.860;4.382;2022-10-23T08:16:05;1.20;;;0.60;;
34136;SDS011;20414;50.860;4.382;2022-10-23T08:18:31;0.65;;;0.60;;
34136;SDS011;20414;50.860;4.382;2022-10-23T08:21:01;0.82;;;0.68;;
34136;SDS011;20414;50.860;4.382;2022-10-23T08:23:28;1.00;;;0.60;;
34136;SDS011;20414;50.860;4.382;2022-10-23T08:25:56;0.70;;;0.60;;
34136;SDS011;20414;50.860;4.382;2022-10-23T08:28:25;1.27;;;0.70;;
34136;SDS011;20414;50.860;4.382;2022-10-23T08:30:52;0.80;;;0.60;;
34136;SDS011;20414;50.860;4.382;2022-10-23T08:33:18;1.27;;;0.70;;
34136;SDS011;20414;50.860;4.382;2022-10-23T08:35:44;0.80;;;0.52;;
34136;SDS011;20414;50.860;4.382;2022-10-23T08:38:09;1.50;;;0.75;;
34136;SDS011;20414;50.860;4.382;2022-10-23T08:40:35;1.80;;;0.63;;
34136;SDS011;20414;50.860;4.382;2022-10-23T08:43:03;0.60;;;0.60;;
34136;SDS011;20414;50.860;4.382;2022-10-23T08:45:36;0.80;;;0.70;;
34136;SDS011;20414;50.860;4.382;2022-10-23T08:48:24;0.90;;;0.73;;
34136;SDS011;20414;50.860;4.382;2022-10-23T08:51:17;0.52;;;0.50;;
34136;SDS011;20414;50.860;4.382;2022-10-23T08:53:58;1.30;;;0.70;;
34136;SDS011;20414;50.860;4.382;2022-10-23T08:56:37;1.40;;;0.80;;
34136;SDS011;20414;50.860;4.382;2022-10-23T08:59:26;1.25;;;0.68;;
34136;SDS011;20414;50.860;4.382;2022-10-23T09:02:20;0.98;;;0.60;;
34136;SDS011;20414;50.860;4.382;2022-10-23T09:04:50;1.67;;;0.88;;
34136;SDS011;20414;50.860;4.382;2022-10-23T09:07:24;0.85;;;0.70;;
34136;SDS011;20414;50.860;4.382;2022-10-23T09:10:06;1.08;;;0.75;;
34136;SDS011;20414;50.860;4.382;2022-10-23T09:12:56;1.30;;;0.70;;
34136;SDS011;20414;50.860;4.382;2022-10-23T09:15:38;1.80;;;0.82;;
34136;SDS011;20414;50.860;4.382;2022-10-23T09:18:11;0.85;;;0.70;;
34136;SDS011;20414;50.860;4.382;2022-10-23T09:20:40;0.80;;;0.60;;
34136;SDS011;20414;50.860;4.382;2022-10-23T09:23:20;1.83;;;0.65;;
34136;SDS011;20414;50.860;4.382;2022-10-23T09:25:48;0.77;;;0.63;;
34136;SDS011;20414;50.860;4.382;2022-10-23T09:29:05;1.90;;;0.60;;
34136;SDS011;20414;50.860;4.382;2022-10-23T09:33:36;0.75;;;0.57;;
34136;SDS011;20414;50.860;4.382;2022-10-23T09:36:04;0.90;;;0.70;;
34136;SDS011;20414;50.860;4.382;2022-10-23T09:41:28;0.82;;;0.70;;
34136;SDS011;20414;50.860;4.382;2022-10-23T09:46:42;1.67;;;0.80;;
34136;SDS011;20414;50.860;4.382;2022-10-23T09:54:20;1.48;;;0.90;;
34136;SDS011;20414;50.860;4.382;2022-10-23T09:56:48;2.78;;;1.00;;
34136;SDS011;20414;50.860;4.382;2022-10-23T10:02:15;1.77;;;1.00;;
34136;SDS011;20414;50.860;4.382;2022-10-23T10:04:49;1.50;;;1.30;;
34136;SDS011;20414;50.860;4.382;2022-10-23T10:07:22;1.80;;;1.70;;
34136;SDS011;20414;50.860;4.382;2022-10-23T10:09:51;2.13;;;1.80;;
34136;SDS011;20414;50.860;4.382;2022-10-23T10:15:02;3.08;;;1.73;;
34136;SDS011;20414;50.860;4.382;2022-10-23T10:36:54;2.55;;;2.20;;
34136;SDS011;20414;50.860;4.382;2022-10-23T10:42:07;2.92;;;2.30;;
34136;SDS011;20414;50.860;4.382;2022-10-23T10:44:52;2.53;;;2.33;;
34136;SDS011;20414;50.860;4.382;2022-10-23T10:48:02;3.92;;;2.45;;
34136;SDS011;20414;50.860;4.382;2022-10-23T10:51:01;3.30;;;2.10;;
34136;SDS011;20414;50.860;4.382;2022-10-23T10:56:35;4.25;;;2.30;;
34136;SDS011;20414;50.860;4.382;2022-10-23T11:04:48;2.85;;;2.60;;
34136;SDS011;20414;50.860;4.382;2022-10-23T11:07:21;2.65;;;2.45;;
34136;SDS011;20414;50.860;4.382;2022-10-23T11:09:51;4.20;;;2.55;;
34136;SDS011;20414;50.860;4.382;2022-10-23T11:12:22;4.85;;;2.72;;
34136;SDS011;20414;50.860;4.382;2022-10-23T11:14:50;4.60;;;3.03;;
34136;SDS011;20414;50.860;4.382;2022-10-23T11:22:37;3.67;;;2.85;;
34136;SDS011;20414;50.860;4.382;2022-10-23T11:25:21;3.47;;;2.88;;
34136;SDS011;20414;50.860;4.382;2022-10-23T11:28:05;3.17;;;2.83;;
34136;SDS011;20414;50.860;4.382;2022-10-23T11:36:47;2.72;;;2.53;;
34136;SDS011;20414;50.860;4.382;2022-10-23T11:39:18;4.28;;;3.00;;
34136;SDS011;20414;50.860;4.382;2022-10-23T11:41:56;3.25;;;2.97;;
34136;SDS011;20414;50.860;4.382;2022-10-23T11:44:24;3.17;;;2.72;;
34136;SDS011;20414;50.860;4.382;2022-10-23T11:47:02;2.92;;;2.40;;
34136;SDS011;20414;50.860;4.382;2022-10-23T11:49:30;3.13;;;2.83;;
34136;SDS011;20414;50.860;4.382;2022-10-23T11:52:02;3.50;;;3.20;;
34136;SDS011;20414;50.860;4.382;2022-10-23T11:54:29;3.13;;;2.83;;
34136;SDS011;20414;50.860;4.382;2022-10-23T11:57:03;3.45;;;2.67;;
34136;SDS011;20414;50.860;4.382;2022-10-23T12:05:33;2.80;;;2.60;;
34136;SDS011;20414;50.860;4.382;2022-10-23T12:08:04;3.05;;;2.70;;
34136;SDS011;20414;50.860;4.382;2022-10-23T12:10:47;2.83;;;2.53;;
34136;SDS011;20414;50.860;4.382;2022-10-23T12:13:30;2.95;;;2.65;;
34136;SDS011;20414;50.860;4.382;2022-10-23T12:16:08;2.87;;;2.50;;
34136;SDS011;20414;50.860;4.382;2022-10-23T12:18:52;2.88;;;2.50;;
34136;SDS011;20414;50.860;4.382;2022-10-23T12:21:23;4.05;;;2.45;;
34136;SDS011;20414;50.860;4.382;2022-10-23T12:29:26;3.38;;;2.70;;
34136;SDS011;20414;50.860;4.382;2022-10-23T12:40:37;2.92;;;2.47;;
34136;SDS011;20414;50.860;4.382;2022-10-23T12:43:15;3.20;;;2.50;;
34136;SDS011;20414;50.860;4.382;2022-10-23T12:45:48;3.05;;;2.33;;
34136;SDS011;20414;50.860;4.382;2022-10-23T12:48:18;3.08;;;2.50;;
34136;SDS011;20414;50.860;4.382;2022-10-23T12:50:49;3.10;;;2.22;;
34136;SDS011;20414;50.860;4.382;2022-10-23T12:53:17;2.88;;;2.55;;
34136;SDS011;20414;50.860;4.382;2022-10-23T12:55:57;2.45;;;2.13;;
34136;SDS011;20414;50.860;4.382;2022-10-23T13:00:56;3.75;;;2.40;;
34136;SDS011;20414;50.860;4.382;2022-10-23T13:03:24;2.72;;;2.50;;
34136;SDS011;20414;50.860;4.382;2022-10-23T13:05:51;2.35;;;2.15;;
34136;SDS011;20414;50.860;4.382;2022-10-23T13:08:20;2.72;;;1.98;;
34136;SDS011;20414;50.860;4.382;2022-10-23T13:10:47;2.65;;;2.30;;
34136;SDS011;20414;50.860;4.382;2022-10-23T13:13:13;2.25;;;2.03;;
34136;SDS011;20414;50.860;4.382;2022-10-23T13:15:45;2.50;;;2.30;;
34136;SDS011;20414;50.860;4.382;2022-10-23T13:18:12;2.13;;;1.92;;
34136;SDS011;20414;50.860;4.382;2022-10-23T13:20:42;2.10;;;1.85;;
34136;SDS011;20414;50.860;4.382;2022-10-23T13:23:31;2.42;;;2.05;;
34136;SDS011;20414;50.860;4.382;2022-10-23T13:26:02;3.22;;;2.05;;
34136;SDS011;20414;50.860;4.382;2022-10-23T13:31:06;2.20;;;2.00;;
34136;SDS011;20414;50.860;4.382;2022-10-23T13:33:42;2.45;;;1.90;;
34136;SDS011;20414;50.860;4.382;2022-10-23T13:38:40;2.53;;;2.28;;
34136;SDS011;20414;50.860;4.382;2022-10-23T13:41:10;2.42;;;2.05;;
34136;SDS011;20414;50.860;4.382;2022-10-23T13:43:39;2.70;;;2.10;;
34136;SDS011;20414;50.860;4.382;2022-10-23T13:46:10;2.25;;;2.05;;
34136;SDS011;20414;50.860;4.382;2022-10-23T13:48:38;3.17;;;2.05;;
34136;SDS011;20414;50.860;4.382;2022-10-23T13:51:37;2.28;;;2.05;;
34136;SDS011;20414;50.860;4.382;2022-10-23T13:53:58;2.25;;;1.90;;
34136;SDS011;20414;50.860;4.382;2022-10-23T13:56:25;2.80;;;1.88;;
34136;SDS011;20414;50.860;4.382;2022-10-23T13:58:52;3.03;;;2.08;;
34136;SDS011;20414;50.860;4.382;2022-10-23T14:01:28;2.20;;;2.00;;
34136;SDS011;20414;50.860;4.382;2022-10-23T14:04:00;2.13;;;1.90;;
34136;SDS011;20414;50.860;4.382;2022-10-23T14:06:28;2.03;;;1.75;;
34136;SDS011;20414;50.860;4.382;2022-10-23T14:08:54;2.15;;;1.95;;
34136;SDS011;20414;50.860;4.382;2022-10-23T14:11:20;2.60;;;1.90;;
34136;SDS011;20414;50.860;4.382;2022-10-23T14:13:47;2.20;;;1.88;;
34136;SDS011;20414;50.860;4.382;2022-10-23T14:16:14;2.45;;;2.20;;
34136;SDS011;20414;50.860;4.382;2022-10-23T14:18:41;2.35;;;1.80;;
34136;SDS011;20414;50.860;4.382;2022-10-23T14:21:08;3.90;;;1.90;;
34136;SDS011;20414;50.860;4.382;2022-10-23T14:23:36;2.22;;;1.90;;
34136;SDS011;20414;50.860;4.382;2022-10-23T14:26:02;2.97;;;1.80;;
34136;SDS011;20414;50.860;4.382;2022-10-23T14:28:30;3.00;;;1.80;;
34136;SDS011;20414;50.860;4.382;2022-10-23T14:30:56;2.42;;;1.63;;
34136;SDS011;20414;50.860;4.382;2022-10-23T14:33:22;2.30;;;1.92;;
34136;SDS011;20414;50.860;4.382;2022-10-23T14:35:50;2.08;;;1.88;;
34136;SDS011;20414;50.860;4.382;2022-10-23T14:38:16;1.93;;;1.70;;
34136;SDS011;20414;50.860;4.382;2022-10-23T14:40:42;2.13;;;1.85;;
34136;SDS011;20414;50.860;4.382;2022-10-23T14:43:08;2.53;;;1.85;;
34136;SDS011;20414;50.860;4.382;2022-10-23T14:45:33;1.95;;;1.80;;
34136;SDS011;20414;50.860;4.382;2022-10-23T14:47:59;2.20;;;1.88;;
34136;SDS011;20414;50.860;4.382;2022-10-23T14:50:26;2.00;;;1.80;;
34136;SDS011;20414;50.860;4.382;2022-10-23T14:52:55;2.05;;;1.83;;
34136;SDS011;20414;50.860;4.382;2022-10-23T14:55:21;1.98;;;1.70;;
34136;SDS011;20414;50.860;4.382;2022-10-23T14:57:47;1.73;;;1.63;;
34136;SDS011;20414;50.860;4.382;2022-10-23T15:00:12;2.10;;;1.80;;
34136;SDS011;20414;50.860;4.382;2022-10-23T15:02:38;1.77;;;1.60;;
34136;SDS011;20414;50.860;4.382;2022-10-23T15:05:04;1.70;;;1.60;;
34136;SDS011;20414;50.860;4.382;2022-10-23T15:07:30;1.92;;;1.77;;
34136;SDS011;20414;50.860;4.382;2022-10-23T15:09:56;1.65;;;1.55;;
34136;SDS011;20414;50.860;4.382;2022-10-23T15:12:21;1.58;;;1.48;;
34136;SDS011;20414;50.860;4.382;2022-10-23T15:14:48;1.98;;;1.77;;
34136;SDS011;20414;50.860;4.382;2022-10-23T15:17:14;1.80;;;1.70;;
34136;SDS011;20414;50.860;4.382;2022-10-23T15:19:39;1.60;;;1.50;;
34136;SDS011;20414;50.860;4.382;2022-10-23T15:22:05;1.98;;;1.77;;
34136;SDS011;20414;50.860;4.382;2022-10-23T15:24:31;2.35;;;1.70;;
34136;SDS011;20414;50.860;4.382;2022-10-23T15:26:56;2.90;;;1.80;;
34136;SDS011;20414;50.860;4.382;2022-10-23T15:29:24;1.60;;;1.50;;
34136;SDS011;20414;50.860;4.382;2022-10-23T15:31:54;1.60;;;1.50;;
34136;SDS011;20414;50.860;4.382;2022-10-23T15:34:22;1.58;;;1.20;;
34136;SDS011;20414;50.860;4.382;2022-10-23T15:36:50;1.77;;;1.50;;
34136;SDS011;20414;50.860;4.382;2022-10-23T15:39:21;1.63;;;1.50;;
34136;SDS011;20414;50.860;4.382;2022-10-23T15:41:49;2.47;;;1.88;;
34136;SDS011;20414;50.860;4.382;2022-10-23T15:44:18;2.35;;;1.40;;
34136;SDS011;20414;50.860;4.382;2022-10-23T15:46:45;1.63;;;1.45;;
34136;SDS011;20414;50.860;4.382;2022-10-23T15:49:12;1.85;;;1.70;;
34136;SDS011;20414;50.860;4.382;2022-10-23T15:51:38;1.90;;;1.70;;
34136;SDS011;20414;50.860;4.382;2022-10-23T15:54:05;1.65;;;1.50;;
34136;SDS011;20414;50.860;4.382;2022-10-23T15:56:32;1.50;;;1.40;;
34136;SDS011;20414;50.860;4.382;2022-10-23T15:58:58;2.25;;;1.52;;
34136;SDS011;20414;50.860;4.382;2022-10-23T16:01:24;2.22;;;1.50;;
34136;SDS011;20414;50.860;4.382;2022-10-23T16:03:49;2.22;;;1.60;;
34136;SDS011;20414;50.860;4.382;2022-10-23T16:06:15;1.60;;;1.50;;
34136;SDS011;20414;50.860;4.382;2022-10-23T16:08:42;1.70;;;1.60;;
34136;SDS011;20414;50.860;4.382;2022-10-23T16:11:18;2.00;;;1.38;;
34136;SDS011;20414;50.860;4.382;2022-10-23T16:13:46;2.38;;;1.70;;
34136;SDS011;20414;50.860;4.382;2022-10-23T16:16:12;1.73;;;1.50;;
34136;SDS011;20414;50.860;4.382;2022-10-23T16:18:38;1.60;;;1.50;;
34136;SDS011;20414;50.860;4.382;2022-10-23T16:21:05;1.58;;;1.48;;
34136;SDS011;20414;50.860;4.382;2022-10-23T16:23:31;1.63;;;1.50;;
34136;SDS011;20414;50.860;4.382;2022-10-23T16:26:01;1.65;;;1.55;;
34136;SDS011;20414;50.860;4.382;2022-10-23T16:28:30;1.70;;;1.52;;
34136;SDS011;20414;50.860;4.382;2022-10-23T16:30:56;1.60;;;1.50;;
34136;SDS011;20414;50.860;4.382;2022-10-23T16:33:22;1.80;;;1.52;;
34136;SDS011;20414;50.860;4.382;2022-10-23T16:35:47;1.70;;;1.60;;
34136;SDS011;20414;50.860;4.382;2022-10-23T16:38:13;1.73;;;1.58;;
34136;SDS011;20414;50.860;4.382;2022-10-23T16:40:38;1.50;;;1.40;;
34136;SDS011;20414;50.860;4.382;2022-10-23T16:43:04;1.67;;;1.58;;
34136;SDS011;20414;50.860;4.382;2022-10-23T16:45:30;1.63;;;1.50;;
34136;SDS011;20414;50.860;4.382;2022-10-23T16:47:55;1.67;;;1.50;;
34136;SDS011;20414;50.860;4.382;2022-10-23T16:50:21;1.83;;;1.45;;
34136;SDS011;20414;50.860;4.382;2022-10-23T16:52:47;1.70;;;1.50;;
34136;SDS011;20414;50.860;4.382;2022-10-23T16:55:13;1.88;;;1.30;;
34136;SDS011;20414;50.860;4.382;2022-10-23T16:57:38;1.95;;;1.70;;
34136;SDS011;20414;50.860;4.382;2022-10-23T17:00:04;2.22;;;1.52;;
34136;SDS011;20414;50.860;4.382;2022-10-23T17:02:31;3.65;;;2.00;;
34136;SDS011;20414;50.860;4.382;2022-10-23T17:04:57;1.85;;;1.50;;
34136;SDS011;20414;50.860;4.382;2022-10-23T17:07:23;1.50;;;1.40;;
34136;SDS011;20414;50.860;4.382;2022-10-23T17:09:49;1.40;;;1.30;;
34136;SDS011;20414;50.860;4.382;2022-10-23T17:12:15;2.10;;;1.38;;
34136;SDS011;20414;50.860;4.382;2022-10-23T17:14:41;1.60;;;1.50;;